KMML/MML METAR and TAF weather

Enter ICAO airport designator
Station Type Date Time Source
KMML METAR 2022/07/01 00:56 UTC NOAA

KMML 010056Z AUTO 35013KT 10SM CLR 26/13 A2994 RMK AO2 SLP131 T02610128


Station Type Date Time Source
KMML Decoded METAR 2022/07/01 00:56 UTC NOAA

Marshall, Southwest Minnesota Regional Airport - Marshall/Ryan Field, MN, United States (KMML) 44-27N 095-49W
Jun 30, 2022 - 08:56 PM EDT / 2022.07.01 0056 UTC
Wind: from the N (350 degrees) at 15 MPH (13 KT):0
Visibility: 10 mile(s):0
Sky conditions: clear
Temperature: 79.0 F (26.1 C)
Dew Point: 55.0 F (12.8 C)
Relative Humidity: 43%
Pressure (altimeter): 29.94 in. Hg (1013 hPa)
ob: KMML 010056Z AUTO 35013KT 10SM CLR 26/13 A2994 RMK AO2 SLP131 T02610128
cycle: 1

Station Type Date Time Source
KMML TAF UTC NOAA

Error!

Example: see airport list